Time;durP1;ratioP1;P1;durP2;ratioP2;P2;SDS_P1;SDS_P2;PMS_P1;PMS_P2;Temp;Humidity;BMP_temperature;BMP_pressure;BME280_temperature;BME280_humidity;BME280_pressure;Samples;Min_cycle;Max_cycle;Signal;HPM_P1;HPM_P2
2024/04/08 00:01:59;;;;;;;8.10;4.17;;;16.50;99.90;;;16.73;75.09;98293.00;5094812;28;20441;-69
2024/04/08 00:04:24;;;;;;;9.10;4.03;;;16.40;99.90;;;16.72;75.04;98293.19;5085764;28;20483;-71
2024/04/08 00:06:50;;;;;;;16.40;4.33;;;16.40;99.90;;;16.60;75.40;98293.59;5054339;28;20470;-71
2024/04/08 00:09:16;;;;;;;10.43;3.97;;;16.40;99.90;;;16.59;75.78;98283.16;5053190;28;20258;-71
2024/04/08 00:11:42;;;;;;;6.23;3.53;;;16.30;99.90;;;16.59;75.82;98283.16;5067155;28;20285;-70
2024/04/08 00:15:59;;;;;;;7.40;4.00;;;16.30;99.90;;;16.61;75.63;98273.19;5495759;25;20591;-72
2024/04/08 00:18:25;;;;;;;14.00;4.83;;;16.30;99.90;;;16.58;76.28;98262.94;5457122;26;20495;-72
2024/04/08 00:21:05;;;;;;;9.20;4.50;;;16.20;99.90;;;16.45;76.80;98264.31;5462309;26;20512;-71
2024/04/08 00:23:34;;;;;;;13.43;4.53;;;16.20;99.90;;;16.39;77.40;98264.19;5403184;26;20320;-71
2024/04/08 00:26:06;;;;;;;11.00;4.67;;;16.20;99.90;;;16.33;77.70;98267.53;5429367;26;20470;-71
2024/04/08 00:28:37;;;;;;;14.77;4.80;;;16.10;99.90;;;16.37;77.88;98271.50;5440778;26;20476;-72
2024/04/08 00:31:08;;;;;;;7.80;4.40;;;16.10;99.90;;;16.21;78.29;98293.59;5409522;26;20511;-71
2024/04/08 00:33:35;;;;;;;13.20;4.80;;;16.00;99.90;;;16.26;78.61;98274.50;5433989;26;20482;-71
2024/04/08 00:36:01;;;;;;;12.03;4.80;;;16.10;99.90;;;16.28;78.25;98278.66;5456690;26;20484;-71
2024/04/08 00:38:27;;;;;;;11.07;4.77;;;16.00;99.90;;;16.31;78.31;98278.31;5431517;26;20577;-71
2024/04/08 00:40:54;;;;;;;11.97;4.83;;;16.00;99.90;;;16.35;78.37;98276.13;5463062;26;20555;-71
2024/04/08 00:43:20;;;;;;;10.03;5.03;;;16.00;99.90;;;16.34;77.99;98266.53;5448134;26;20549;-71
2024/04/08 00:45:48;;;;;;;7.13;4.43;;;16.00;99.90;;;16.32;78.30;98271.19;5452270;26;21137;-70
2024/04/08 00:48:14;;;;;;;13.30;4.50;;;16.00;99.90;;;16.34;78.22;98274.50;5406872;26;20484;-70
2024/04/08 00:50:45;;;;;;;11.80;4.70;;;16.00;99.90;;;16.33;78.08;98276.31;5409006;26;20479;-72
2024/04/08 00:53:13;;;;;;;13.40;4.13;;;16.00;99.90;;;16.26;78.35;98271.88;5430507;26;20467;-71
2024/04/08 00:55:41;;;;;;;9.63;4.70;;;15.90;99.90;;;16.18;78.88;98260.31;5451330;26;20479;-71
2024/04/08 00:58:07;;;;;;;9.40;4.50;;;16.00;99.90;;;16.13;78.97;98262.63;5411527;26;20476;-72
2024/04/08 01:00:33;;;;;;;12.20;4.90;;;15.90;99.90;;;16.13;78.84;98259.16;5429824;26;20612;-72
2024/04/08 01:03:02;;;;;;;8.70;4.00;;;15.90;99.90;;;16.17;78.05;98277.22;5451566;26;20480;-71
2024/04/08 01:05:28;;;;;;;9.93;4.20;;;15.90;99.90;;;16.26;77.89;98269.22;5450601;26;20246;-71
2024/04/08 01:07:54;;;;;;;13.60;3.90;;;15.90;99.90;;;16.27;77.99;98277.00;5430541;26;20567;-70
2024/04/08 01:10:20;;;;;;;9.87;4.87;;;15.90;99.90;;;16.33;77.76;98280.78;5413741;26;20527;-71
2024/04/08 01:12:46;;;;;;;9.13;4.30;;;15.80;99.90;;;16.38;77.48;98278.44;5416036;26;20482;-70
2024/04/08 01:15:12;;;;;;;6.03;3.70;;;15.90;99.90;;;16.42;76.74;98274.44;5427075;26;21233;-72
2024/04/08 01:17:38;;;;;;;8.20;4.00;;;16.00;99.90;;;16.48;75.84;98257.03;5432546;26;20281;-72
2024/04/08 01:20:08;;;;;;;12.23;4.50;;;16.00;99.90;;;16.48;76.21;98265.78;5420698;26;20556;-72
2024/04/08 01:22:34;;;;;;;15.43;4.33;;;16.00;99.90;;;16.47;76.41;98279.25;5417483;26;20462;-72
2024/04/08 01:25:04;;;;;;;7.57;4.63;;;16.10;99.90;;;16.44;74.97;98267.97;5397528;26;20545;-71
2024/04/08 01:27:30;;;;;;;7.77;4.07;;;16.00;99.90;;;16.46;75.34;98251.91;5401923;26;20656;-72
2024/04/08 01:29:56;;;;;;;11.77;4.43;;;16.00;99.90;;;16.50;74.52;98239.13;5384399;26;20478;-70
2024/04/08 01:32:21;;;;;;;11.80;4.13;;;16.00;99.90;;;16.52;74.36;98223.84;5412728;26;20595;-72
2024/04/08 01:34:47;;;;;;;11.30;4.40;;;16.10;99.90;;;16.38;74.30;98252.75;5424355;26;20247;-72
2024/04/08 01:37:13;;;;;;;10.30;3.93;;;16.10;99.90;;;16.40;72.96;98239.34;5371447;26;20785;-72
2024/04/08 01:39:39;;;;;;;15.17;3.97;;;16.00;99.90;;;16.46;72.59;98238.66;5407689;26;20254;-71
2024/04/08 01:42:05;;;;;;;8.23;3.90;;;16.10;99.90;;;16.51;70.98;98249.53;5423317;26;20304;-71
2024/04/08 01:44:30;;;;;;;6.03;3.83;;;16.10;99.90;;;16.57;72.16;98243.53;5410510;26;20251;-70
2024/04/08 01:46:56;;;;;;;8.20;4.00;;;16.10;99.90;;;16.61;72.00;98238.72;5399370;26;20262;-71
2024/04/08 01:49:26;;;;;;;6.53;3.90;;;16.10;99.90;;;16.57;72.76;98256.81;5410234;26;20686;-71
2024/04/08 01:51:53;;;;;;;10.17;4.20;;;16.10;99.90;;;16.55;72.98;98265.94;5409971;26;20259;-71
2024/04/08 01:54:31;;;;;;;9.40;4.50;;;16.10;99.90;;;16.45;73.64;98263.50;5378552;26;20540;-71
2024/04/08 01:56:57;;;;;;;7.53;3.93;;;16.20;99.90;;;16.50;73.35;98266.47;5405507;26;20530;-71
2024/04/08 01:59:22;;;;;;;9.60;3.50;;;16.10;99.90;;;16.49;73.28;98269.28;5405134;26;20480;-72
2024/04/08 02:01:48;;;;;;;11.73;4.00;;;16.10;99.90;;;16.48;72.79;98257.03;5407636;26;20324;-72
2024/04/08 02:04:14;;;;;;;10.60;4.23;;;16.10;99.90;;;16.49;72.73;98254.22;5416679;26;20987;-71
2024/04/08 02:06:39;;;;;;;12.40;4.97;;;16.10;99.90;;;16.50;72.30;98252.38;5401252;26;20290;-72
2024/04/08 02:09:05;;;;;;;8.70;3.97;;;16.10;99.90;;;16.52;71.93;98256.53;5417876;26;20323;-71
2024/04/08 02:11:31;;;;;;;10.60;3.90;;;16.10;99.90;;;16.53;72.15;98252.03;5416623;26;20370;-71
2024/04/08 02:13:57;;;;;;;7.93;3.40;;;16.20;99.90;;;16.56;72.80;98260.47;5397240;26;20747;-71
2024/04/08 02:16:22;;;;;;;6.87;3.60;;;16.10;99.90;;;16.57;73.19;98264.75;5419399;26;20245;-72
2024/04/08 02:18:51;;;;;;;10.87;4.20;;;16.10;99.90;;;16.53;73.55;98281.19;5406280;26;20245;-71
2024/04/08 02:21:17;;;;;;;10.37;4.53;;;16.10;99.90;;;16.52;73.53;98275.06;5375794;26;20240;-71
2024/04/08 02:23:44;;;;;;;10.10;3.87;;;16.10;99.90;;;16.47;73.75;98284.53;5387267;26;20474;-70
2024/04/08 02:26:10;;;;;;;9.33;4.10;;;16.20;99.90;;;16.44;73.78;98275.94;5413660;26;20366;-71
2024/04/08 02:28:36;;;;;;;9.03;3.80;;;16.10;99.90;;;16.40;73.80;98268.50;5350981;26;20478;-71
2024/04/08 02:31:03;;;;;;;10.30;3.63;;;16.10;99.90;;;16.42;73.27;98263.84;5372223;26;20796;-71
2024/04/08 02:33:38;;;;;;;9.20;3.90;;;16.10;99.90;;;16.44;73.82;98270.63;5385506;26;20245;-72
2024/04/08 02:36:04;;;;;;;9.70;3.93;;;16.00;99.90;;;16.44;73.93;98267.16;5379647;26;20469;-71
2024/04/08 02:38:32;;;;;;;11.53;4.10;;;16.00;99.90;;;16.43;73.99;98270.81;5400447;26;20562;-74
2024/04/08 02:40:59;;;;;;;13.37;4.00;;;16.00;99.90;;;16.41;74.69;98246.28;5405750;26;20813;-72
2024/04/08 02:43:25;;;;;;;7.97;3.53;;;16.00;99.90;;;16.43;74.54;98258.38;5352765;26;20548;-71
2024/04/08 02:45:51;;;;;;;7.40;4.53;;;16.00;99.90;;;16.43;74.50;98257.56;5374182;26;20532;-72
2024/04/08 02:48:19;;;;;;;9.63;3.80;;;16.00;99.90;;;16.39;74.78;98261.53;5390918;26;20478;-73
2024/04/08 02:50:46;;;;;;;9.30;4.00;;;16.00;99.90;;;16.39;74.85;98254.44;5378195;26;20533;-71
2024/04/08 02:53:11;;;;;;;8.80;4.37;;;16.00;99.90;;;16.35;74.35;98262.88;5377004;26;20874;-72
2024/04/08 02:55:38;;;;;;;6.50;3.80;;;16.00;99.90;;;16.31;74.65;98265.06;5390762;26;20478;-70
2024/04/08 02:58:04;;;;;;;6.90;3.43;;;15.90;99.90;;;16.32;74.77;98271.19;5394426;26;21529;-72
2024/04/08 03:00:30;;;;;;;7.73;3.53;;;15.90;99.90;;;16.33;75.14;98267.53;5364372;26;20478;-71
2024/04/08 03:02:56;;;;;;;8.33;3.33;;;15.90;99.90;;;16.25;75.41;98271.03;5411462;26;20483;-72
2024/04/08 03:05:22;;;;;;;7.07;4.00;;;15.90;99.90;;;16.23;74.86;98267.72;5374891;26;20532;-71
2024/04/08 03:07:52;;;;;;;9.27;4.03;;;15.90;99.90;;;16.22;74.91;98258.97;5381084;26;20356;-71
2024/04/08 03:10:18;;;;;;;9.20;3.67;;;15.80;99.90;;;16.19;75.09;98258.47;5380860;26;20287;-70
2024/04/08 03:12:44;;;;;;;9.10;4.00;;;15.90;99.90;;;16.18;74.42;98257.66;5388770;26;20463;-72
2024/04/08 03:15:10;;;;;;;7.20;3.70;;;15.80;99.90;;;16.20;74.01;98266.28;5403335;26;20247;-71
2024/04/08 03:17:35;;;;;;;10.33;4.60;;;15.80;99.90;;;16.16;74.21;98262.28;5385155;26;20247;-73
2024/04/08 03:20:04;;;;;;;5.33;3.67;;;15.80;99.90;;;16.10;74.60;98267.44;5413194;26;20246;-71
2024/04/08 03:22:30;;;;;;;10.43;3.83;;;15.80;99.90;;;16.07;74.57;98255.38;5413658;26;20250;-71
2024/04/08 03:24:56;;;;;;;7.20;3.70;;;15.80;99.90;;;16.03;74.32;98247.94;5395035;26;20515;-71
2024/04/08 03:27:21;;;;;;;8.93;3.57;;;15.90;99.90;;;15.96;70.22;98255.75;5397462;26;20718;-71
2024/04/08 03:29:49;;;;;;;5.40;2.80;;;15.70;99.90;;;15.97;66.86;98255.56;5385759;26;20244;-71
2024/04/08 03:32:15;;;;;;;8.93;3.30;;;15.70;99.90;;;16.08;64.20;98250.88;5409952;26;20235;-70
2024/04/08 03:34:41;;;;;;;7.30;2.63;;;15.70;99.90;;;16.15;63.82;98241.28;5362980;26;20814;-70
2024/04/08 03:37:06;;;;;;;9.53;3.17;;;15.70;99.90;;;16.29;60.86;98248.50;5386492;26;20289;-71
2024/04/08 03:39:32;;;;;;;9.03;3.07;;;15.80;99.90;;;16.35;60.63;98244.34;5439995;26;20344;-71
2024/04/08 03:41:58;;;;;;;5.80;2.90;;;15.90;99.90;;;16.41;61.55;98246.28;5403982;26;20765;-70
2024/04/08 03:44:24;;;;;;;5.97;4.20;;;15.90;99.90;;;16.43;62.71;98249.59;5410969;26;20241;-71
2024/04/08 03:46:50;;;;;;;15.50;4.83;;;15.90;99.90;;;16.39;63.28;98249.13;5414989;26;20247;-70
2024/04/08 03:49:15;;;;;;;8.37;3.60;;;15.90;99.90;;;16.34;64.04;98256.75;5412255;26;20284;-71
2024/04/08 03:51:41;;;;;;;6.97;3.63;;;15.90;99.90;;;16.27;67.25;98247.84;5387063;26;20465;-70
2024/04/08 03:54:07;;;;;;;11.70;3.67;;;15.90;99.90;;;16.13;68.17;98241.44;5404980;26;20661;-71
2024/04/08 03:56:33;;;;;;;7.37;3.50;;;15.80;99.90;;;16.05;68.69;98252.09;5349648;26;20274;-70
2024/04/08 03:58:59;;;;;;;8.90;4.20;;;15.80;99.90;;;15.98;68.91;98243.13;5382193;26;20682;-71
2024/04/08 04:01:25;;;;;;;8.90;3.37;;;15.80;99.90;;;15.95;69.25;98240.84;5388674;26;20239;-71
2024/04/08 04:03:51;;;;;;;8.60;3.87;;;15.70;99.90;;;15.90;70.32;98233.41;5400716;26;20464;-72
2024/04/08 04:06:16;;;;;;;9.00;3.70;;;15.70;99.90;;;15.78;71.02;98239.25;5442972;26;20292;-70
2024/04/08 04:08:42;;;;;;;7.87;4.37;;;15.60;99.90;;;15.66;71.64;98236.91;5357007;26;20349;-71
2024/04/08 04:11:10;;;;;;;8.17;3.90;;;15.50;99.90;;;15.61;71.79;98233.13;5405146;26;20243;-71
2024/04/08 04:13:35;;;;;;;7.60;3.90;;;15.40;99.90;;;15.56;72.19;98230.97;5378821;26;20250;-70
2024/04/08 04:16:05;;;;;;;8.67;4.03;;;15.40;99.90;;;15.46;72.68;98236.44;5394306;26;20527;-70
2024/04/08 04:18:32;;;;;;;9.07;4.40;;;15.30;99.90;;;15.45;72.59;98228.69;5388500;26;20243;-70
2024/04/08 04:20:58;;;;;;;13.07;4.33;;;15.20;99.90;;;15.41;73.15;98230.00;5381843;26;20537;-72
2024/04/08 04:23:23;;;;;;;10.43;4.47;;;15.10;99.90;;;15.35;73.47;98231.50;5403624;26;20477;-71
2024/04/08 04:25:57;;;;;;;11.40;4.47;;;15.10;99.90;;;15.27;73.69;98232.34;5380682;26;20298;-70
2024/04/08 04:28:23;;;;;;;7.83;4.03;;;15.10;99.90;;;15.22;73.82;98228.53;5401607;26;20356;-72
2024/04/08 04:30:57;;;;;;;7.67;4.20;;;15.00;99.90;;;15.20;73.94;98225.25;5408319;26;20521;-72
2024/04/08 04:33:23;;;;;;;8.23;4.40;;;15.00;99.90;;;15.19;74.40;98229.69;5435732;26;20586;-71
2024/04/08 04:35:57;;;;;;;8.20;4.80;;;15.00;99.90;;;15.07;74.04;98225.75;5413020;26;20469;-69
2024/04/08 04:38:24;;;;;;;9.67;4.17;;;14.90;99.90;;;14.92;74.34;98228.19;5384596;26;20479;-71
2024/04/08 04:41:04;;;;;;;11.13;4.30;;;14.90;99.90;;;14.85;74.64;98221.94;5359183;26;20610;-70
2024/04/08 04:43:31;;;;;;;13.20;4.10;;;14.80;99.90;;;14.86;74.80;98234.16;5403858;26;20554;-71
2024/04/08 04:45:57;;;;;;;8.27;4.10;;;14.70;99.90;;;14.86;74.76;98233.31;5380773;26;20465;-71
2024/04/08 04:48:24;;;;;;;10.30;4.20;;;14.70;99.90;;;14.90;74.77;98229.34;5386325;26;20525;-70
2024/04/08 04:50:50;;;;;;;10.50;4.20;;;14.70;99.90;;;14.88;74.55;98228.69;5383328;26;20475;-70
2024/04/08 04:53:16;;;;;;;8.83;3.93;;;14.60;99.90;;;14.89;74.67;98231.19;5380345;26;20568;-71
2024/04/08 04:55:41;;;;;;;7.70;4.30;;;14.60;99.90;;;14.86;74.58;98228.03;5429055;26;20811;-71
2024/04/08 04:58:07;;;;;;;9.57;3.90;;;14.60;99.90;;;14.79;74.09;98241.91;5382114;26;20257;-72
2024/04/08 05:00:36;;;;;;;15.03;4.93;;;14.60;99.90;;;14.77;74.68;98235.13;5383865;26;20298;-71
2024/04/08 05:03:01;;;;;;;9.40;4.40;;;14.50;99.90;;;14.73;74.85;98233.81;5417670;26;20284;-71
2024/04/08 05:05:27;;;;;;;10.03;4.10;;;14.50;99.90;;;14.72;74.95;98235.63;5400338;26;20558;-70
2024/04/08 05:07:54;;;;;;;6.60;3.77;;;14.50;99.90;;;14.70;75.03;98234.94;5381389;26;20369;-71
2024/04/08 05:10:20;;;;;;;8.90;4.30;;;14.50;99.90;;;14.70;75.43;98245.53;5429303;26;20565;-71
2024/04/08 05:12:45;;;;;;;10.63;4.10;;;14.40;99.90;;;14.70;75.36;98245.53;5382779;26;20472;-70
2024/04/08 05:15:11;;;;;;;9.37;4.30;;;14.40;99.90;;;14.67;75.58;98248.50;5411491;26;20606;-70
2024/04/08 05:17:37;;;;;;;11.00;3.80;;;14.40;99.90;;;14.69;75.64;98245.66;5394466;26;20276;-71
2024/04/08 05:20:04;;;;;;;9.47;4.00;;;14.40;99.90;;;14.73;75.15;98247.84;5376148;26;20293;-71
2024/04/08 05:22:30;;;;;;;7.50;4.00;;;14.40;99.90;;;14.77;75.34;98251.00;5412106;26;20243;-73
2024/04/08 05:24:56;;;;;;;11.53;5.67;;;14.40;99.90;;;14.77;75.29;98245.69;5406331;26;20469;-70
2024/04/08 05:27:22;;;;;;;11.97;5.67;;;14.40;99.90;;;14.79;75.70;98249.03;5410113;26;21188;-71
2024/04/08 05:29:47;;;;;;;10.07;5.17;;;14.40;99.90;;;14.81;75.89;98258.41;5393308;26;20255;-71
2024/04/08 05:32:13;;;;;;;9.27;4.40;;;14.40;99.90;;;14.84;75.39;98250.16;5432459;26;20247;-71
2024/04/08 05:34:39;;;;;;;13.07;4.30;;;14.50;99.90;;;14.83;74.41;98263.56;5418868;26;20362;-70
2024/04/08 05:37:05;;;;;;;9.57;4.60;;;14.50;99.90;;;14.84;73.45;98252.81;5410450;26;20282;-71
2024/04/08 05:39:31;;;;;;;11.47;4.17;;;14.50;99.90;;;14.92;73.97;98261.75;5431343;26;20481;-72
2024/04/08 05:41:57;;;;;;;11.20;3.80;;;14.60;99.90;;;15.14;73.75;98261.13;5393475;26;20243;-70
2024/04/08 05:44:22;;;;;;;10.37;4.20;;;14.60;99.90;;;15.42;72.33;98268.72;5418499;26;20320;-69
2024/04/08 05:46:48;;;;;;;17.77;4.37;;;14.70;99.90;;;15.59;71.11;98266.88;5377663;26;20246;-72
2024/04/08 05:49:14;;;;;;;14.00;4.33;;;14.90;99.90;;;15.91;70.58;98276.59;5381642;26;20242;-69
2024/04/08 05:51:40;;;;;;;12.60;4.37;;;15.00;99.90;;;16.21;70.36;98278.50;5416484;26;20277;-72
2024/04/08 05:54:06;;;;;;;6.73;4.10;;;15.20;99.90;;;16.46;68.43;98273.13;5384292;26;20297;-70
2024/04/08 05:56:31;;;;;;;8.27;3.93;;;15.40;99.90;;;16.55;67.26;98274.72;5394659;26;20242;-70
2024/04/08 05:58:57;;;;;;;12.83;3.93;;;15.60;99.90;;;16.74;66.08;98254.91;5401149;26;20517;-70
2024/04/08 06:01:23;;;;;;;11.30;4.53;;;15.70;99.90;;;16.93;65.76;98253.66;5391312;26;20242;-70
2024/04/08 06:03:49;;;;;;;10.07;4.23;;;15.90;99.90;;;17.10;64.35;98257.81;5422922;26;20278;-70
2024/04/08 06:06:18;;;;;;;13.70;4.10;;;16.10;99.90;;;17.18;64.63;98253.44;5427084;26;20475;-71
2024/04/08 06:08:46;;;;;;;10.10;4.43;;;16.30;99.90;;;17.43;64.36;98256.72;5401227;26;20282;-71
2024/04/08 06:11:12;;;;;;;9.40;4.43;;;16.50;99.90;;;17.59;63.24;98253.91;5435530;26;21104;-71
2024/04/08 06:13:38;;;;;;;12.87;4.80;;;16.70;99.90;;;17.74;62.59;98262.72;5443338;26;20529;-69
2024/04/08 06:16:04;;;;;;;6.50;4.20;;;16.80;99.90;;;17.91;63.68;98260.78;5412308;26;20243;-70
2024/04/08 06:18:30;;;;;;;9.77;4.50;;;17.00;99.90;;;18.14;62.56;98258.03;5362103;26;20274;-70
2024/04/08 06:20:56;;;;;;;12.60;5.37;;;17.20;99.90;;;18.28;61.51;98264.31;5383230;26;20472;-71
2024/04/08 06:23:23;;;;;;;21.83;6.43;;;17.40;99.90;;;18.37;61.92;98265.88;5407213;26;20270;-69
2024/04/08 06:26:03;;;;;;;12.00;5.40;;;17.50;99.90;;;18.58;61.96;98272.28;5392314;26;20562;-72
2024/04/08 06:28:29;;;;;;;10.83;6.00;;;17.70;99.90;;;18.92;61.76;98275.16;5389966;26;20539;-71
2024/04/08 06:30:56;;;;;;;13.30;5.37;;;17.90;99.90;;;19.25;60.82;98261.31;5378941;26;20626;-71
2024/04/08 06:33:22;;;;;;;11.77;6.10;;;18.20;99.90;;;19.55;60.16;98261.19;5385976;26;20465;-70
2024/04/08 06:35:48;;;;;;;13.03;6.30;;;18.40;99.90;;;19.80;58.09;98262.41;5388603;26;20473;-71
2024/04/08 06:38:14;;;;;;;10.93;6.20;;;18.60;99.90;;;19.98;55.76;98272.56;5408419;26;20544;-71
2024/04/08 06:40:46;;;;;;;15.50;6.50;;;18.80;99.90;;;20.24;55.76;98271.06;5393323;26;20465;-70
2024/04/08 06:43:11;;;;;;;12.80;6.27;;;19.10;99.90;;;20.52;53.86;98265.69;5412136;26;20465;-70
2024/04/08 06:45:37;;;;;;;12.23;5.53;;;19.30;99.90;;;20.72;52.98;98268.44;5384401;26;20828;-69
2024/04/08 06:48:03;;;;;;;11.17;5.13;;;19.50;99.90;;;20.95;52.01;98268.91;5392110;26;20239;-71
2024/04/08 06:50:29;;;;;;;12.53;6.00;;;19.70;99.90;;;21.17;51.17;98261.53;5395590;26;20265;-72
2024/04/08 06:52:55;;;;;;;12.77;5.50;;;20.00;99.90;;;21.46;50.35;98257.69;5382979;26;20469;-70
2024/04/08 06:55:21;;;;;;;15.43;5.67;;;20.20;99.90;;;21.70;48.70;98253.56;5429575;26;20250;-70
2024/04/08 06:57:46;;;;;;;13.03;5.13;;;20.50;99.90;;;21.81;48.06;98259.31;5417337;26;20329;-70
2024/04/08 07:00:13;;;;;;;11.80;4.47;;;20.60;99.90;;;21.85;47.51;98265.91;5389114;26;20635;-70
2024/04/08 07:02:40;;;;;;;13.00;4.43;;;20.80;99.90;;;21.84;46.78;98257.03;5449987;26;20293;-69
2024/04/08 07:05:06;;;;;;;13.03;4.07;;;21.00;99.90;;;21.94;46.19;98259.28;5408897;26;20481;-70
2024/04/08 07:07:33;;;;;;;10.90;3.40;;;21.10;99.90;;;22.07;46.05;98248.56;5351811;26;20518;-70
2024/04/08 07:09:59;;;;;;;13.83;3.93;;;21.20;99.90;;;22.39;45.85;98241.47;5436924;26;20273;-71
2024/04/08 07:12:24;;;;;;;8.50;3.33;;;21.40;99.90;;;22.74;44.89;98245.66;5384519;26;20484;-70
2024/04/08 07:14:54;;;;;;;11.07;3.77;;;21.60;99.90;;;23.01;43.72;98254.34;5394296;26;20254;-70
2024/04/08 07:17:20;;;;;;;12.93;3.60;;;21.80;99.90;;;23.32;43.56;98253.53;5423523;26;20250;-71
2024/04/08 07:19:46;;;;;;;6.37;3.70;;;22.10;99.90;;;23.69;43.60;98254.50;5356347;26;20465;-69
2024/04/08 07:22:12;;;;;;;9.03;3.37;;;22.30;99.90;;;24.01;42.68;98247.16;5388382;26;20520;-71
2024/04/08 07:24:38;;;;;;;10.50;3.20;;;22.60;99.90;;;24.19;41.57;98253.56;5378915;26;20654;-71
2024/04/08 07:27:05;;;;;;;13.13;4.03;;;22.80;99.90;;;24.34;41.43;98248.66;5357685;26;20328;-70
2024/04/08 07:29:34;;;;;;;13.63;4.93;;;23.10;99.90;;;24.44;41.01;98242.78;5408013;26;20250;-70
2024/04/08 07:32:03;;;;;;;14.27;5.73;;;23.30;99.90;;;24.48;40.78;98241.28;5385748;26;20473;-70
2024/04/08 07:34:28;;;;;;;11.30;6.43;;;23.40;99.90;;;24.75;40.77;98239.06;5414014;26;20532;-70
2024/04/08 07:36:54;;;;;;;8.40;3.57;;;23.60;99.90;;;24.67;39.16;98229.44;5426825;26;20534;-70
2024/04/08 07:39:20;;;;;;;11.77;3.63;;;23.70;99.90;;;24.35;39.78;98228.81;5387793;26;20293;-70
2024/04/08 07:41:46;;;;;;;11.90;3.50;;;23.70;99.90;;;23.80;40.17;98237.69;5401328;26;20242;-69
2024/04/08 07:44:12;;;;;;;9.77;3.30;;;23.60;99.90;;;23.40;41.66;98221.09;5414019;26;20254;-70
2024/04/08 07:46:37;;;;;;;16.33;3.80;;;23.30;99.90;;;23.47;41.62;98221.03;5389003;26;20293;-69
2024/04/08 07:49:03;;;;;;;9.47;2.80;;;23.10;99.90;;;23.54;41.04;98225.28;5434911;26;20478;-70
2024/04/08 07:51:29;;;;;;;14.77;3.43;;;23.00;99.90;;;23.28;40.61;98225.53;5374387;26;20250;-70
2024/04/08 07:53:55;;;;;;;13.13;3.80;;;23.00;99.90;;;23.30;41.42;98231.50;5425444;26;20351;-70
2024/04/08 07:56:21;;;;;;;15.17;3.77;;;22.80;99.90;;;23.25;41.31;98225.97;5383256;26;20250;-70
2024/04/08 07:58:47;;;;;;;16.57;3.90;;;22.70;99.90;;;23.29;40.97;98225.28;5385170;26;21250;-69
2024/04/08 08:01:13;;;;;;;7.97;2.80;;;22.70;99.90;;;23.21;41.78;98233.63;5440751;26;20517;-70
2024/04/08 08:03:39;;;;;;;10.33;3.60;;;22.70;99.90;;;23.35;42.00;98235.16;5391714;26;24040;-70
2024/04/08 08:06:05;;;;;;;10.00;3.23;;;22.70;99.90;;;23.58;41.80;98237.25;5388224;26;21530;-69
2024/04/08 08:08:31;;;;;;;11.03;3.50;;;22.80;99.90;;;23.51;40.76;98233.78;5417011;26;20569;-70
2024/04/08 08:11:03;;;;;;;9.13;3.63;;;22.80;99.90;;;23.53;40.94;98237.06;5384372;26;20488;-70
2024/04/08 08:13:33;;;;;;;8.93;3.17;;;22.80;99.90;;;23.29;42.24;98232.53;5389390;26;20862;-72
2024/04/08 08:16:00;;;;;;;13.53;3.20;;;22.80;99.90;;;23.06;41.33;98228.56;5364135;26;20610;-69
2024/04/08 08:18:26;;;;;;;10.77;3.60;;;22.70;99.90;;;22.81;41.30;98233.03;5392616;26;20995;-69
2024/04/08 08:20:53;;;;;;;20.60;5.60;;;22.60;99.90;;;22.92;41.12;98229.69;5381624;26;20628;-69
2024/04/08 08:23:20;;;;;;;10.97;3.83;;;22.60;99.90;;;23.01;41.25;98230.25;5386156;26;20569;-70
2024/04/08 08:25:47;;;;;;;12.10;3.97;;;22.50;99.90;;;22.98;41.37;98236.88;5430294;26;20555;-70
2024/04/08 08:28:13;;;;;;;18.43;5.27;;;22.50;99.90;;;22.80;41.80;98228.72;5430086;26;20875;-72
2024/04/08 08:30:40;;;;;;;10.13;3.67;;;22.50;99.90;;;22.71;42.24;98216.63;5387034;26;20488;-71
2024/04/08 08:33:06;;;;;;;9.03;4.00;;;22.40;99.90;;;22.83;42.49;98215.72;5393021;26;20523;-69
2024/04/08 08:35:32;;;;;;;9.10;3.10;;;22.30;99.90;;;23.03;42.18;98226.31;5420568;26;20465;-70
2024/04/08 08:38:01;;;;;;;11.37;3.50;;;22.40;99.90;;;22.72;41.96;98218.25;5372049;26;20522;-70
2024/04/08 08:40:28;;;;;;;8.70;3.70;;;22.40;99.90;;;22.92;41.92;98216.28;5439486;26;20522;-70
2024/04/08 08:42:57;;;;;;;15.10;3.33;;;22.30;99.90;;;22.73;42.23;98218.06;5419244;26;20519;-70
2024/04/08 08:45:23;;;;;;;11.67;3.43;;;22.40;99.90;;;22.55;42.57;98224.13;5440213;26;20542;-70
2024/04/08 08:47:49;;;;;;;12.63;3.70;;;22.30;99.90;;;22.68;42.94;98224.03;5390385;26;21406;-72
2024/04/08 08:50:16;;;;;;;10.37;3.03;;;22.20;99.90;;;23.13;43.33;98217.81;5391001;26;20590;-72
2024/04/08 08:52:42;;;;;;;9.17;3.10;;;22.30;99.90;;;23.25;41.87;98215.25;5386818;26;20547;-70
2024/04/08 08:55:09;;;;;;;11.40;3.10;;;22.50;99.90;;;23.43;42.07;98220.66;5425555;26;20488;-70
2024/04/08 08:57:34;;;;;;;12.00;3.90;;;22.60;99.90;;;23.60;41.40;98227.09;5434804;26;20529;-70
2024/04/08 09:00:05;;;;;;;11.20;3.53;;;22.70;99.90;;;23.98;40.94;98223.44;5409117;26;20472;-72
2024/04/08 09:02:33;;;;;;;18.03;3.87;;;22.90;99.90;;;24.32;40.56;98223.88;5443542;26;20239;-72
2024/04/08 09:04:58;;;;;;;13.03;3.70;;;23.10;99.90;;;24.38;39.88;98228.38;5403698;26;20475;-72
2024/04/08 09:07:24;;;;;;;10.03;2.90;;;23.30;99.90;;;24.55;40.33;98227.75;5405336;26;20525;-71
2024/04/08 09:09:58;;;;;;;14.63;3.87;;;23.50;99.90;;;23.84;39.90;98224.66;5391171;26;20242;-70
2024/04/08 09:12:24;;;;;;;9.27;3.60;;;23.40;99.90;;;23.60;40.64;98215.56;5360899;26;20294;-70
2024/04/08 09:14:51;;;;;;;11.27;3.40;;;23.30;99.90;;;23.17;41.46;98226.22;5376072;26;20542;-71
2024/04/08 09:17:18;;;;;;;14.43;3.40;;;23.10;99.90;;;23.10;42.19;98227.09;5386390;26;20474;-71
2024/04/08 09:19:44;;;;;;;12.20;3.23;;;22.90;99.90;;;23.20;42.39;98228.47;5380220;26;20502;-71
2024/04/08 09:22:11;;;;;;;12.23;4.00;;;22.80;99.90;;;23.26;41.96;98222.25;5367882;26;20479;-70
2024/04/08 09:24:37;;;;;;;15.70;4.37;;;22.80;99.90;;;23.35;42.81;98224.41;5398966;26;20476;-70
2024/04/08 09:27:03;;;;;;;13.63;3.33;;;22.80;99.90;;;23.50;42.63;98217.91;5380925;26;22054;-70
2024/04/08 09:29:28;;;;;;;10.70;3.73;;;22.80;99.90;;;23.68;41.66;98217.16;5384994;26;20275;-71
2024/04/08 09:31:55;;;;;;;13.00;3.40;;;22.90;99.90;;;23.93;40.95;98219.78;5400582;26;20640;-70
2024/04/08 09:34:20;;;;;;;13.23;3.60;;;22.90;99.90;;;24.15;40.85;98225.53;5389881;26;20243;-71
2024/04/08 09:36:47;;;;;;;13.90;4.23;;;23.20;99.90;;;24.40;40.80;98222.75;5403028;26;20468;-71
2024/04/08 09:39:14;;;;;;;13.93;3.30;;;23.30;99.90;;;24.79;40.25;98218.75;5402490;26;20304;-71
2024/04/08 09:41:40;;;;;;;13.67;3.37;;;23.60;99.90;;;24.95;38.70;98225.34;5386264;26;20521;-71
2024/04/08 09:44:13;;;;;;;9.53;3.73;;;23.80;99.90;;;25.37;38.55;98214.59;5379311;26;20466;-70
2024/04/08 09:46:40;;;;;;;13.97;3.90;;;24.10;99.90;;;25.54;38.31;98212.03;5378502;26;20273;-70
2024/04/08 09:49:10;;;;;;;14.90;3.47;;;24.30;99.90;;;25.57;36.70;98206.19;5378833;26;20539;-72
2024/04/08 09:51:39;;;;;;;15.23;3.70;;;24.50;99.90;;;25.79;37.67;98201.84;5386313;26;20470;-70
2024/04/08 09:54:05;;;;;;;10.93;3.90;;;24.60;99.90;;;25.95;37.20;98186.06;5404887;26;20520;-71
2024/04/08 09:56:35;;;;;;;13.17;3.57;;;24.80;99.90;;;26.27;36.86;98189.16;5385133;26;20479;-70
2024/04/08 09:59:21;;;;;;;9.40;3.40;;;25.00;99.90;;;26.33;35.08;98186.31;5372791;26;20546;-71
2024/04/08 10:01:47;;;;;;;13.43;3.70;;;25.20;99.90;;;26.60;36.18;98180.38;5377859;26;20469;-70
2024/04/08 10:04:19;;;;;;;9.53;3.50;;;25.30;99.90;;;26.63;35.14;98189.84;5349718;26;20574;-71
2024/04/08 10:06:46;;;;;;;12.03;3.40;;;25.50;99.90;;;26.56;35.62;98184.59;5375072;26;21020;-71
2024/04/08 10:09:13;;;;;;;14.23;4.50;;;25.50;99.90;;;26.32;35.40;98184.69;5368114;26;20480;-70
2024/04/08 10:11:43;;;;;;;9.40;3.77;;;25.50;99.90;;;26.45;36.03;98180.88;5372941;26;20485;-71
2024/04/08 10:14:20;;;;;;;12.50;3.33;;;25.50;99.90;;;26.63;35.48;98179.88;5384636;26;20607;-71
2024/04/08 10:16:50;;;;;;;10.57;3.47;;;25.60;99.90;;;26.89;35.38;98172.25;5402846;26;20486;-72